sensor_id;sensor_type;location;lat;lon;timestamp;P1;durP1;ratioP1;P2;durP2;ratioP2
21148;SDS011;10732;51.472;6.466;2023-08-07T00:01:44;9.07;;;2.30;;
21148;SDS011;10732;51.472;6.466;2023-08-07T00:04:09;8.63;;;2.28;;
21148;SDS011;10732;51.472;6.466;2023-08-07T00:06:35;7.72;;;2.65;;
21148;SDS011;10732;51.472;6.466;2023-08-07T00:09:00;10.95;;;2.75;;
21148;SDS011;10732;51.472;6.466;2023-08-07T00:11:26;8.32;;;2.47;;
21148;SDS011;10732;51.472;6.466;2023-08-07T00:13:53;9.30;;;2.47;;
21148;SDS011;10732;51.472;6.466;2023-08-07T00:16:19;7.85;;;2.17;;
21148;SDS011;10732;51.472;6.466;2023-08-07T00:18:44;9.02;;;2.35;;
21148;SDS011;10732;51.472;6.466;2023-08-07T00:21:10;13.25;;;2.40;;
21148;SDS011;10732;51.472;6.466;2023-08-07T00:23:35;9.95;;;2.90;;
21148;SDS011;10732;51.472;6.466;2023-08-07T00:26:01;9.05;;;2.55;;
21148;SDS011;10732;51.472;6.466;2023-08-07T00:28:26;10.15;;;2.28;;
21148;SDS011;10732;51.472;6.466;2023-08-07T00:30:53;10.95;;;2.60;;
21148;SDS011;10732;51.472;6.466;2023-08-07T00:33:18;8.85;;;2.70;;
21148;SDS011;10732;51.472;6.466;2023-08-07T00:35:44;8.20;;;2.80;;
21148;SDS011;10732;51.472;6.466;2023-08-07T00:38:09;8.80;;;2.70;;
21148;SDS011;10732;51.472;6.466;2023-08-07T00:40:38;8.73;;;2.88;;
21148;SDS011;10732;51.472;6.466;2023-08-07T00:43:04;9.88;;;2.88;;
21148;SDS011;10732;51.472;6.466;2023-08-07T00:45:32;9.27;;;2.78;;
21148;SDS011;10732;51.472;6.466;2023-08-07T00:48:01;10.27;;;2.70;;
21148;SDS011;10732;51.472;6.466;2023-08-07T00:50:27;10.73;;;2.63;;
21148;SDS011;10732;51.472;6.466;2023-08-07T00:52:54;12.20;;;2.58;;
21148;SDS011;10732;51.472;6.466;2023-08-07T00:55:20;9.25;;;2.97;;
21148;SDS011;10732;51.472;6.466;2023-08-07T00:57:45;10.57;;;2.63;;
21148;SDS011;10732;51.472;6.466;2023-08-07T01:00:11;11.93;;;2.88;;
21148;SDS011;10732;51.472;6.466;2023-08-07T01:02:38;9.70;;;2.80;;
21148;SDS011;10732;51.472;6.466;2023-08-07T01:05:04;8.90;;;2.47;;
21148;SDS011;10732;51.472;6.466;2023-08-07T01:07:30;10.55;;;3.00;;
21148;SDS011;10732;51.472;6.466;2023-08-07T01:09:55;12.85;;;2.78;;
21148;SDS011;10732;51.472;6.466;2023-08-07T01:12:27;7.82;;;2.83;;
21148;SDS011;10732;51.472;6.466;2023-08-07T01:14:58;9.55;;;2.58;;
21148;SDS011;10732;51.472;6.466;2023-08-07T01:17:32;10.35;;;2.85;;
21148;SDS011;10732;51.472;6.466;2023-08-07T01:19:59;11.20;;;2.80;;
21148;SDS011;10732;51.472;6.466;2023-08-07T01:22:25;14.95;;;3.30;;
21148;SDS011;10732;51.472;6.466;2023-08-07T01:24:51;10.10;;;3.10;;
21148;SDS011;10732;51.472;6.466;2023-08-07T01:29:55;10.05;;;3.50;;
21148;SDS011;10732;51.472;6.466;2023-08-07T01:32:35;13.02;;;3.42;;
21148;SDS011;10732;51.472;6.466;2023-08-07T01:35:24;15.77;;;3.60;;
21148;SDS011;10732;51.472;6.466;2023-08-07T01:37:54;8.50;;;3.17;;
21148;SDS011;10732;51.472;6.466;2023-08-07T01:40:22;12.73;;;2.72;;
21148;SDS011;10732;51.472;6.466;2023-08-07T01:42:48;11.35;;;2.60;;
21148;SDS011;10732;51.472;6.466;2023-08-07T01:45:14;11.63;;;3.47;;
21148;SDS011;10732;51.472;6.466;2023-08-07T01:47:51;10.13;;;3.13;;
21148;SDS011;10732;51.472;6.466;2023-08-07T01:50:17;11.07;;;3.08;;
21148;SDS011;10732;51.472;6.466;2023-08-07T01:52:43;13.95;;;3.47;;
21148;SDS011;10732;51.472;6.466;2023-08-07T01:55:09;12.07;;;3.17;;
21148;SDS011;10732;51.472;6.466;2023-08-07T01:57:34;9.40;;;3.50;;
21148;SDS011;10732;51.472;6.466;2023-08-07T02:00:00;7.72;;;2.90;;
21148;SDS011;10732;51.472;6.466;2023-08-07T02:02:25;9.45;;;3.35;;
21148;SDS011;10732;51.472;6.466;2023-08-07T02:04:51;13.65;;;2.88;;
21148;SDS011;10732;51.472;6.466;2023-08-07T02:07:17;14.27;;;3.55;;
21148;SDS011;10732;51.472;6.466;2023-08-07T02:09:42;11.98;;;3.03;;
21148;SDS011;10732;51.472;6.466;2023-08-07T02:12:08;10.75;;;3.35;;
21148;SDS011;10732;51.472;6.466;2023-08-07T02:14:33;17.63;;;3.60;;
21148;SDS011;10732;51.472;6.466;2023-08-07T02:16:59;12.35;;;3.15;;
21148;SDS011;10732;51.472;6.466;2023-08-07T02:19:24;8.05;;;3.00;;
21148;SDS011;10732;51.472;6.466;2023-08-07T02:21:50;12.63;;;3.10;;
21148;SDS011;10732;51.472;6.466;2023-08-07T02:24:15;13.95;;;3.28;;
21148;SDS011;10732;51.472;6.466;2023-08-07T02:26:41;17.50;;;3.78;;
21148;SDS011;10732;51.472;6.466;2023-08-07T02:29:06;12.18;;;2.90;;
21148;SDS011;10732;51.472;6.466;2023-08-07T02:31:34;17.65;;;3.40;;
21148;SDS011;10732;51.472;6.466;2023-08-07T02:33:59;13.63;;;2.80;;
21148;SDS011;10732;51.472;6.466;2023-08-07T02:36:25;11.77;;;3.08;;
21148;SDS011;10732;51.472;6.466;2023-08-07T02:38:50;11.75;;;3.38;;
21148;SDS011;10732;51.472;6.466;2023-08-07T02:41:16;11.02;;;2.83;;
21148;SDS011;10732;51.472;6.466;2023-08-07T02:43:41;13.00;;;3.63;;
21148;SDS011;10732;51.472;6.466;2023-08-07T02:46:07;16.25;;;3.60;;
21148;SDS011;10732;51.472;6.466;2023-08-07T02:48:33;15.70;;;2.67;;
21148;SDS011;10732;51.472;6.466;2023-08-07T02:50:59;12.95;;;3.00;;
21148;SDS011;10732;51.472;6.466;2023-08-07T02:53:24;12.13;;;3.45;;
21148;SDS011;10732;51.472;6.466;2023-08-07T02:55:50;9.10;;;2.83;;
21148;SDS011;10732;51.472;6.466;2023-08-07T02:58:15;11.20;;;3.08;;
21148;SDS011;10732;51.472;6.466;2023-08-07T03:00:41;12.68;;;3.55;;
21148;SDS011;10732;51.472;6.466;2023-08-07T03:03:06;9.68;;;3.38;;
21148;SDS011;10732;51.472;6.466;2023-08-07T03:05:32;17.30;;;3.92;;
21148;SDS011;10732;51.472;6.466;2023-08-07T03:07:57;14.30;;;3.70;;
21148;SDS011;10732;51.472;6.466;2023-08-07T03:10:23;9.95;;;3.42;;
21148;SDS011;10732;51.472;6.466;2023-08-07T03:12:48;15.45;;;3.58;;
21148;SDS011;10732;51.472;6.466;2023-08-07T03:15:14;13.98;;;3.47;;
21148;SDS011;10732;51.472;6.466;2023-08-07T03:17:39;14.77;;;3.50;;
21148;SDS011;10732;51.472;6.466;2023-08-07T03:20:05;13.70;;;3.88;;
21148;SDS011;10732;51.472;6.466;2023-08-07T03:22:31;12.48;;;3.55;;
21148;SDS011;10732;51.472;6.466;2023-08-07T03:24:57;20.10;;;3.92;;
21148;SDS011;10732;51.472;6.466;2023-08-07T03:27:22;13.55;;;3.35;;
21148;SDS011;10732;51.472;6.466;2023-08-07T03:29:48;13.25;;;3.28;;
21148;SDS011;10732;51.472;6.466;2023-08-07T03:32:13;11.50;;;3.42;;
21148;SDS011;10732;51.472;6.466;2023-08-07T03:34:40;13.20;;;3.58;;
21148;SDS011;10732;51.472;6.466;2023-08-07T03:37:06;11.10;;;3.40;;
21148;SDS011;10732;51.472;6.466;2023-08-07T03:39:31;10.88;;;3.53;;
21148;SDS011;10732;51.472;6.466;2023-08-07T03:41:57;11.55;;;3.53;;
21148;SDS011;10732;51.472;6.466;2023-08-07T03:44:22;11.75;;;3.10;;
21148;SDS011;10732;51.472;6.466;2023-08-07T03:46:48;10.55;;;3.35;;
21148;SDS011;10732;51.472;6.466;2023-08-07T03:49:13;14.98;;;4.15;;
21148;SDS011;10732;51.472;6.466;2023-08-07T03:51:39;12.40;;;3.72;;
21148;SDS011;10732;51.472;6.466;2023-08-07T03:54:04;9.00;;;3.58;;
21148;SDS011;10732;51.472;6.466;2023-08-07T03:56:30;13.50;;;3.85;;
21148;SDS011;10732;51.472;6.466;2023-08-07T03:59:04;9.90;;;3.70;;
21148;SDS011;10732;51.472;6.466;2023-08-07T04:01:30;8.93;;;3.50;;
21148;SDS011;10732;51.472;6.466;2023-08-07T04:03:56;17.33;;;4.00;;
21148;SDS011;10732;51.472;6.466;2023-08-07T04:06:21;15.30;;;3.67;;
21148;SDS011;10732;51.472;6.466;2023-08-07T04:08:47;11.45;;;3.40;;
21148;SDS011;10732;51.472;6.466;2023-08-07T04:11:13;14.55;;;3.83;;
21148;SDS011;10732;51.472;6.466;2023-08-07T04:13:38;10.38;;;3.35;;
21148;SDS011;10732;51.472;6.466;2023-08-07T04:16:04;11.02;;;3.83;;
21148;SDS011;10732;51.472;6.466;2023-08-07T04:18:30;11.65;;;3.45;;
21148;SDS011;10732;51.472;6.466;2023-08-07T04:20:57;14.13;;;4.00;;
21148;SDS011;10732;51.472;6.466;2023-08-07T04:23:23;16.33;;;4.15;;
21148;SDS011;10732;51.472;6.466;2023-08-07T04:25:48;13.75;;;3.58;;
21148;SDS011;10732;51.472;6.466;2023-08-07T04:28:15;12.55;;;3.78;;
21148;SDS011;10732;51.472;6.466;2023-08-07T04:30:41;17.23;;;4.05;;
21148;SDS011;10732;51.472;6.466;2023-08-07T04:33:07;17.80;;;4.10;;
21148;SDS011;10732;51.472;6.466;2023-08-07T04:35:32;11.68;;;3.80;;
21148;SDS011;10732;51.472;6.466;2023-08-07T04:37:58;16.52;;;4.05;;
21148;SDS011;10732;51.472;6.466;2023-08-07T04:40:24;14.77;;;3.83;;
21148;SDS011;10732;51.472;6.466;2023-08-07T04:42:50;12.77;;;3.70;;
21148;SDS011;10732;51.472;6.466;2023-08-07T04:45:15;11.95;;;3.92;;
21148;SDS011;10732;51.472;6.466;2023-08-07T04:47:41;14.75;;;3.88;;
21148;SDS011;10732;51.472;6.466;2023-08-07T04:50:07;14.18;;;3.50;;
21148;SDS011;10732;51.472;6.466;2023-08-07T04:52:33;14.73;;;3.83;;
21148;SDS011;10732;51.472;6.466;2023-08-07T04:54:59;11.05;;;3.67;;
21148;SDS011;10732;51.472;6.466;2023-08-07T04:57:24;11.23;;;3.40;;
21148;SDS011;10732;51.472;6.466;2023-08-07T04:59:50;15.13;;;3.95;;
21148;SDS011;10732;51.472;6.466;2023-08-07T05:02:16;14.27;;;3.58;;
21148;SDS011;10732;51.472;6.466;2023-08-07T05:04:42;16.52;;;3.90;;
21148;SDS011;10732;51.472;6.466;2023-08-07T05:07:08;7.90;;;3.50;;
21148;SDS011;10732;51.472;6.466;2023-08-07T05:09:33;14.77;;;4.13;;
21148;SDS011;10732;51.472;6.466;2023-08-07T05:11:59;13.15;;;3.90;;
21148;SDS011;10732;51.472;6.466;2023-08-07T05:14:24;18.88;;;4.40;;
21148;SDS011;10732;51.472;6.466;2023-08-07T05:16:50;10.13;;;3.97;;
21148;SDS011;10732;51.472;6.466;2023-08-07T05:19:15;12.30;;;3.92;;
21148;SDS011;10732;51.472;6.466;2023-08-07T05:21:41;10.80;;;3.80;;
21148;SDS011;10732;51.472;6.466;2023-08-07T05:24:06;11.75;;;4.00;;
21148;SDS011;10732;51.472;6.466;2023-08-07T05:26:32;9.45;;;4.00;;
21148;SDS011;10732;51.472;6.466;2023-08-07T05:28:57;13.45;;;4.47;;
21148;SDS011;10732;51.472;6.466;2023-08-07T05:31:24;11.98;;;3.63;;
21148;SDS011;10732;51.472;6.466;2023-08-07T05:33:50;14.48;;;4.47;;
21148;SDS011;10732;51.472;6.466;2023-08-07T05:36:15;16.00;;;4.82;;
21148;SDS011;10732;51.472;6.466;2023-08-07T05:38:41;12.48;;;4.28;;
21148;SDS011;10732;51.472;6.466;2023-08-07T05:41:08;15.88;;;4.95;;
21148;SDS011;10732;51.472;6.466;2023-08-07T05:43:34;10.65;;;4.13;;
21148;SDS011;10732;51.472;6.466;2023-08-07T05:45:59;11.57;;;4.60;;
21148;SDS011;10732;51.472;6.466;2023-08-07T05:48:25;14.27;;;4.28;;
21148;SDS011;10732;51.472;6.466;2023-08-07T05:50:51;13.30;;;4.35;;
21148;SDS011;10732;51.472;6.466;2023-08-07T05:53:17;11.25;;;4.15;;
21148;SDS011;10732;51.472;6.466;2023-08-07T05:55:43;12.60;;;4.60;;
21148;SDS011;10732;51.472;6.466;2023-08-07T05:58:08;10.73;;;4.18;;
21148;SDS011;10732;51.472;6.466;2023-08-07T06:00:34;10.50;;;4.20;;
21148;SDS011;10732;51.472;6.466;2023-08-07T06:02:59;12.68;;;4.10;;
21148;SDS011;10732;51.472;6.466;2023-08-07T06:05:25;14.55;;;4.35;;
21148;SDS011;10732;51.472;6.466;2023-08-07T06:07:51;8.05;;;3.53;;
21148;SDS011;10732;51.472;6.466;2023-08-07T06:10:16;11.85;;;3.90;;
21148;SDS011;10732;51.472;6.466;2023-08-07T06:12:42;10.88;;;3.78;;
21148;SDS011;10732;51.472;6.466;2023-08-07T06:15:07;14.00;;;4.00;;
21148;SDS011;10732;51.472;6.466;2023-08-07T06:17:33;10.70;;;3.75;;
21148;SDS011;10732;51.472;6.466;2023-08-07T06:19:59;11.60;;;4.07;;
21148;SDS011;10732;51.472;6.466;2023-08-07T06:22:25;13.48;;;4.22;;
21148;SDS011;10732;51.472;6.466;2023-08-07T06:24:50;10.00;;;3.80;;
21148;SDS011;10732;51.472;6.466;2023-08-07T06:27:16;12.18;;;4.10;;
21148;SDS011;10732;51.472;6.466;2023-08-07T06:29:41;11.77;;;3.85;;
21148;SDS011;10732;51.472;6.466;2023-08-07T06:32:07;11.68;;;3.50;;
21148;SDS011;10732;51.472;6.466;2023-08-07T06:34:35;7.28;;;3.15;;
21148;SDS011;10732;51.472;6.466;2023-08-07T06:37:02;10.07;;;3.58;;
21148;SDS011;10732;51.472;6.466;2023-08-07T06:39:28;10.02;;;3.45;;
21148;SDS011;10732;51.472;6.466;2023-08-07T06:41:54;9.18;;;3.45;;
21148;SDS011;10732;51.472;6.466;2023-08-07T06:44:20;7.68;;;3.33;;
21148;SDS011;10732;51.472;6.466;2023-08-07T06:46:46;7.50;;;3.28;;
21148;SDS011;10732;51.472;6.466;2023-08-07T06:49:11;10.18;;;3.65;;
21148;SDS011;10732;51.472;6.466;2023-08-07T06:51:37;7.72;;;3.20;;
21148;SDS011;10732;51.472;6.466;2023-08-07T06:54:02;9.13;;;3.55;;
21148;SDS011;10732;51.472;6.466;2023-08-07T06:56:29;11.15;;;3.28;;
21148;SDS011;10732;51.472;6.466;2023-08-07T06:58:54;9.05;;;3.60;;
21148;SDS011;10732;51.472;6.466;2023-08-07T07:01:20;11.65;;;3.88;;
21148;SDS011;10732;51.472;6.466;2023-08-07T07:03:46;11.05;;;3.72;;
21148;SDS011;10732;51.472;6.466;2023-08-07T07:06:12;10.52;;;3.83;;
21148;SDS011;10732;51.472;6.466;2023-08-07T07:08:38;9.90;;;3.33;;
21148;SDS011;10732;51.472;6.466;2023-08-07T07:11:03;8.50;;;3.25;;
21148;SDS011;10732;51.472;6.466;2023-08-07T07:13:29;12.13;;;3.80;;
21148;SDS011;10732;51.472;6.466;2023-08-07T07:15:55;8.68;;;3.78;;
21148;SDS011;10732;51.472;6.466;2023-08-07T07:18:21;10.98;;;3.78;;
21148;SDS011;10732;51.472;6.466;2023-08-07T07:20:46;11.32;;;3.95;;
21148;SDS011;10732;51.472;6.466;2023-08-07T07:23:12;10.10;;;4.03;;
21148;SDS011;10732;51.472;6.466;2023-08-07T07:25:37;8.85;;;4.00;;
21148;SDS011;10732;51.472;6.466;2023-08-07T07:28:03;9.82;;;3.70;;
21148;SDS011;10732;51.472;6.466;2023-08-07T07:30:29;9.23;;;4.00;;
21148;SDS011;10732;51.472;6.466;2023-08-07T07:32:54;10.35;;;3.58;;
21148;SDS011;10732;51.472;6.466;2023-08-07T07:35:20;10.30;;;3.35;;
21148;SDS011;10732;51.472;6.466;2023-08-07T07:37:45;5.78;;;3.00;;
21148;SDS011;10732;51.472;6.466;2023-08-07T07:40:11;8.05;;;3.20;;
21148;SDS011;10732;51.472;6.466;2023-08-07T07:42:37;8.50;;;2.90;;
21148;SDS011;10732;51.472;6.466;2023-08-07T07:45:03;8.38;;;2.67;;
21148;SDS011;10732;51.472;6.466;2023-08-07T07:47:29;8.93;;;2.58;;
21148;SDS011;10732;51.472;6.466;2023-08-07T07:50:04;8.90;;;3.00;;
21148;SDS011;10732;51.472;6.466;2023-08-07T07:52:33;12.68;;;2.88;;
21148;SDS011;10732;51.472;6.466;2023-08-07T07:54:59;8.13;;;2.58;;
21148;SDS011;10732;51.472;6.466;2023-08-07T07:57:24;6.43;;;2.50;;
21148;SDS011;10732;51.472;6.466;2023-08-07T07:59:51;8.35;;;2.63;;
21148;SDS011;10732;51.472;6.466;2023-08-07T08:02:16;7.22;;;2.65;;
21148;SDS011;10732;51.472;6.466;2023-08-07T08:04:42;6.95;;;2.70;;
21148;SDS011;10732;51.472;6.466;2023-08-07T08:07:08;10.40;;;2.83;;
21148;SDS011;10732;51.472;6.466;2023-08-07T08:09:33;6.85;;;2.28;;
21148;SDS011;10732;51.472;6.466;2023-08-07T08:11:59;9.27;;;2.75;;
21148;SDS011;10732;51.472;6.466;2023-08-07T08:14:25;5.97;;;2.47;;
21148;SDS011;10732;51.472;6.466;2023-08-07T08:16:50;5.50;;;2.40;;
21148;SDS011;10732;51.472;6.466;2023-08-07T08:19:16;6.93;;;2.15;;
21148;SDS011;10732;51.472;6.466;2023-08-07T08:21:42;4.72;;;2.05;;
21148;SDS011;10732;51.472;6.466;2023-08-07T08:24:08;5.35;;;1.83;;
21148;SDS011;10732;51.472;6.466;2023-08-07T08:26:33;5.95;;;1.80;;
21148;SDS011;10732;51.472;6.466;2023-08-07T08:28:59;6.32;;;1.90;;
21148;SDS011;10732;51.472;6.466;2023-08-07T08:31:25;4.93;;;1.67;;
21148;SDS011;10732;51.472;6.466;2023-08-07T08:33:50;6.05;;;1.65;;
21148;SDS011;10732;51.472;6.466;2023-08-07T08:36:16;6.55;;;2.20;;
21148;SDS011;10732;51.472;6.466;2023-08-07T08:38:41;8.57;;;2.60;;
21148;SDS011;10732;51.472;6.466;2023-08-07T08:41:08;8.38;;;2.45;;
21148;SDS011;10732;51.472;6.466;2023-08-07T08:43:34;7.97;;;2.47;;
21148;SDS011;10732;51.472;6.466;2023-08-07T08:46:01;8.55;;;2.70;;
21148;SDS011;10732;51.472;6.466;2023-08-07T08:48:30;10.57;;;3.00;;
21148;SDS011;10732;51.472;6.466;2023-08-07T08:50:59;7.88;;;2.85;;
21148;SDS011;10732;51.472;6.466;2023-08-07T08:53:25;9.90;;;2.45;;
21148;SDS011;10732;51.472;6.466;2023-08-07T08:55:51;6.93;;;2.42;;
21148;SDS011;10732;51.472;6.466;2023-08-07T08:58:17;9.15;;;2.60;;
21148;SDS011;10732;51.472;6.466;2023-08-07T09:00:42;8.85;;;2.65;;
21148;SDS011;10732;51.472;6.466;2023-08-07T09:03:08;10.55;;;3.10;;
21148;SDS011;10732;51.472;6.466;2023-08-07T09:05:34;5.03;;;2.53;;
21148;SDS011;10732;51.472;6.466;2023-08-07T09:08:01;10.20;;;2.80;;
21148;SDS011;10732;51.472;6.466;2023-08-07T09:10:27;7.82;;;2.50;;
21148;SDS011;10732;51.472;6.466;2023-08-07T09:13:01;7.55;;;2.95;;
21148;SDS011;10732;51.472;6.466;2023-08-07T09:15:30;8.18;;;3.00;;
21148;SDS011;10732;51.472;6.466;2023-08-07T09:17:57;10.82;;;3.00;;
21148;SDS011;10732;51.472;6.466;2023-08-07T09:20:27;12.98;;;3.15;;
21148;SDS011;10732;51.472;6.466;2023-08-07T09:22:53;9.82;;;3.20;;
21148;SDS011;10732;51.472;6.466;2023-08-07T09:25:26;11.05;;;2.97;;
21148;SDS011;10732;51.472;6.466;2023-08-07T09:27:54;11.88;;;3.28;;
21148;SDS011;10732;51.472;6.466;2023-08-07T09:30:20;5.68;;;2.78;;
21148;SDS011;10732;51.472;6.466;2023-08-07T09:32:47;8.50;;;2.70;;
21148;SDS011;10732;51.472;6.466;2023-08-07T09:35:12;7.25;;;2.55;;
21148;SDS011;10732;51.472;6.466;2023-08-07T09:37:38;8.02;;;2.63;;
21148;SDS011;10732;51.472;6.466;2023-08-07T09:40:04;8.20;;;2.42;;
21148;SDS011;10732;51.472;6.466;2023-08-07T09:42:30;7.47;;;2.40;;
21148;SDS011;10732;51.472;6.466;2023-08-07T09:44:57;9.13;;;2.45;;
21148;SDS011;10732;51.472;6.466;2023-08-07T09:47:24;6.47;;;2.22;;
21148;SDS011;10732;51.472;6.466;2023-08-07T09:49:50;10.30;;;2.58;;
21148;SDS011;10732;51.472;6.466;2023-08-07T09:52:19;5.72;;;2.42;;
21148;SDS011;10732;51.472;6.466;2023-08-07T09:54:45;5.85;;;2.25;;
21148;SDS011;10732;51.472;6.466;2023-08-07T09:57:11;9.10;;;2.50;;
21148;SDS011;10732;51.472;6.466;2023-08-07T09:59:36;9.63;;;2.53;;
21148;SDS011;10732;51.472;6.466;2023-08-07T10:02:02;7.78;;;2.60;;
21148;SDS011;10732;51.472;6.466;2023-08-07T10:04:28;9.38;;;2.58;;
21148;SDS011;10732;51.472;6.466;2023-08-07T10:06:55;7.25;;;2.15;;
21148;SDS011;10732;51.472;6.466;2023-08-07T10:09:21;9.63;;;2.85;;
21148;SDS011;10732;51.472;6.466;2023-08-07T10:11:48;8.50;;;2.47;;
21148;SDS011;10732;51.472;6.466;2023-08-07T10:14:14;5.32;;;2.15;;
21148;SDS011;10732;51.472;6.466;2023-08-07T10:16:41;7.57;;;2.60;;
21148;SDS011;10732;51.472;6.466;2023-08-07T10:19:07;7.28;;;2.40;;
21148;SDS011;10732;51.472;6.466;2023-08-07T10:21:43;7.97;;;2.00;;
21148;SDS011;10732;51.472;6.466;2023-08-07T10:24:10;11.60;;;2.53;;
21148;SDS011;10732;51.472;6.466;2023-08-07T10:26:37;8.77;;;2.17;;
21148;SDS011;10732;51.472;6.466;2023-08-07T10:29:08;6.38;;;2.20;;
21148;SDS011;10732;51.472;6.466;2023-08-07T10:31:36;6.82;;;2.58;;
21148;SDS011;10732;51.472;6.466;2023-08-07T10:34:03;8.85;;;2.50;;
21148;SDS011;10732;51.472;6.466;2023-08-07T10:36:33;10.07;;;2.38;;
21148;SDS011;10732;51.472;6.466;2023-08-07T10:39:06;7.85;;;2.13;;
21148;SDS011;10732;51.472;6.466;2023-08-07T10:41:39;7.55;;;2.30;;
21148;SDS011;10732;51.472;6.466;2023-08-07T10:44:08;4.43;;;2.05;;
21148;SDS011;10732;51.472;6.466;2023-08-07T10:46:46;8.45;;;2.20;;
21148;SDS011;10732;51.472;6.466;2023-08-07T10:49:32;6.75;;;2.13;;
21148;SDS011;10732;51.472;6.466;2023-08-07T10:52:13;6.63;;;2.20;;
21148;SDS011;10732;51.472;6.466;2023-08-07T10:54:48;7.25;;;2.42;;
21148;SDS011;10732;51.472;6.466;2023-08-07T10:57:15;6.93;;;2.25;;
21148;SDS011;10732;51.472;6.466;2023-08-07T11:00:04;7.60;;;2.15;;
21148;SDS011;10732;51.472;6.466;2023-08-07T11:02:36;5.60;;;2.20;;
21148;SDS011;10732;51.472;6.466;2023-08-07T11:05:04;10.95;;;2.28;;
21148;SDS011;10732;51.472;6.466;2023-08-07T11:07:30;8.55;;;2.22;;
21148;SDS011;10732;51.472;6.466;2023-08-07T11:09:56;6.80;;;2.38;;
21148;SDS011;10732;51.472;6.466;2023-08-07T11:12:26;7.32;;;2.20;;
21148;SDS011;10732;51.472;6.466;2023-08-07T11:14:53;6.50;;;2.38;;
21148;SDS011;10732;51.472;6.466;2023-08-07T11:17:24;5.72;;;2.17;;
21148;SDS011;10732;51.472;6.466;2023-08-07T11:19:50;7.28;;;2.20;;
21148;SDS011;10732;51.472;6.466;2023-08-07T11:22:16;8.88;;;2.42;;
21148;SDS011;10732;51.472;6.466;2023-08-07T11:24:41;5.10;;;2.20;;
21148;SDS011;10732;51.472;6.466;2023-08-07T11:27:07;6.78;;;2.35;;
21148;SDS011;10732;51.472;6.466;2023-08-07T11:29:33;5.65;;;2.25;;
21148;SDS011;10732;51.472;6.466;2023-08-07T11:31:59;4.60;;;2.05;;
21148;SDS011;10732;51.472;6.466;2023-08-07T11:34:24;6.90;;;2.25;;
21148;SDS011;10732;51.472;6.466;2023-08-07T11:36:50;8.27;;;2.22;;
21148;SDS011;10732;51.472;6.466;2023-08-07T11:39:16;7.45;;;2.67;;
21148;SDS011;10732;51.472;6.466;2023-08-07T11:41:42;9.68;;;2.92;;
21148;SDS011;10732;51.472;6.466;2023-08-07T11:44:09;6.28;;;2.45;;
21148;SDS011;10732;51.472;6.466;2023-08-07T11:46:35;6.82;;;2.75;;
21148;SDS011;10732;51.472;6.466;2023-08-07T11:49:01;5.53;;;2.33;;
21148;SDS011;10732;51.472;6.466;2023-08-07T11:51:29;7.47;;;2.38;;
21148;SDS011;10732;51.472;6.466;2023-08-07T11:53:55;8.48;;;2.10;;
21148;SDS011;10732;51.472;6.466;2023-08-07T11:56:23;4.18;;;1.70;;
21148;SDS011;10732;51.472;6.466;2023-08-07T11:58:50;13.27;;;3.08;;
21148;SDS011;10732;51.472;6.466;2023-08-07T12:01:18;4.38;;;2.13;;
21148;SDS011;10732;51.472;6.466;2023-08-07T12:03:54;9.27;;;2.30;;
21148;SDS011;10732;51.472;6.466;2023-08-07T12:06:21;7.28;;;2.20;;
21148;SDS011;10732;51.472;6.466;2023-08-07T12:08:49;9.50;;;2.20;;
21148;SDS011;10732;51.472;6.466;2023-08-07T12:11:18;7.75;;;2.00;;
21148;SDS011;10732;51.472;6.466;2023-08-07T12:13:44;6.00;;;1.90;;
21148;SDS011;10732;51.472;6.466;2023-08-07T12:16:11;6.38;;;2.17;;
21148;SDS011;10732;51.472;6.466;2023-08-07T12:18:58;5.60;;;2.13;;
21148;SDS011;10732;51.472;6.466;2023-08-07T12:21:24;5.35;;;1.92;;
21148;SDS011;10732;51.472;6.466;2023-08-07T12:23:54;5.97;;;2.40;;
21148;SDS011;10732;51.472;6.466;2023-08-07T12:26:21;11.20;;;2.17;;
21148;SDS011;10732;51.472;6.466;2023-08-07T12:28:46;6.05;;;1.88;;
21148;SDS011;10732;51.472;6.466;2023-08-07T12:31:12;7.78;;;2.05;;
21148;SDS011;10732;51.472;6.466;2023-08-07T12:33:37;7.75;;;2.20;;
21148;SDS011;10732;51.472;6.466;2023-08-07T12:36:03;6.72;;;2.20;;
21148;SDS011;10732;51.472;6.466;2023-08-07T12:38:29;5.00;;;1.92;;
21148;SDS011;10732;51.472;6.466;2023-08-07T12:40:54;4.50;;;2.10;;
21148;SDS011;10732;51.472;6.466;2023-08-07T12:43:20;6.78;;;2.25;;
21148;SDS011;10732;51.472;6.466;2023-08-07T12:45:46;6.40;;;2.00;;
21148;SDS011;10732;51.472;6.466;2023-08-07T12:48:12;5.65;;;2.00;;
21148;SDS011;10732;51.472;6.466;2023-08-07T12:50:38;3.83;;;1.65;;
21148;SDS011;10732;51.472;6.466;2023-08-07T12:53:04;5.72;;;2.25;;
21148;SDS011;10732;51.472;6.466;2023-08-07T12:55:29;4.78;;;1.77;;
21148;SDS011;10732;51.472;6.466;2023-08-07T12:57:56;5.75;;;1.98;;
21148;SDS011;10732;51.472;6.466;2023-08-07T13:00:21;3.28;;;1.80;;
21148;SDS011;10732;51.472;6.466;2023-08-07T13:02:48;3.75;;;1.92;;
21148;SDS011;10732;51.472;6.466;2023-08-07T13:05:15;4.35;;;1.92;;
21148;SDS011;10732;51.472;6.466;2023-08-07T13:07:43;6.22;;;2.08;;
21148;SDS011;10732;51.472;6.466;2023-08-07T13:10:10;6.07;;;2.40;;
21148;SDS011;10732;51.472;6.466;2023-08-07T13:12:38;5.90;;;2.10;;
21148;SDS011;10732;51.472;6.466;2023-08-07T13:15:06;5.75;;;1.85;;
21148;SDS011;10732;51.472;6.466;2023-08-07T13:17:33;6.38;;;1.70;;
21148;SDS011;10732;51.472;6.466;2023-08-07T13:20:00;4.22;;;2.00;;
21148;SDS011;10732;51.472;6.466;2023-08-07T13:22:26;6.05;;;2.15;;
21148;SDS011;10732;51.472;6.466;2023-08-07T13:24:52;5.53;;;2.00;;
21148;SDS011;10732;51.472;6.466;2023-08-07T13:27:17;4.47;;;2.00;;
21148;SDS011;10732;51.472;6.466;2023-08-07T13:29:43;7.45;;;1.88;;
21148;SDS011;10732;51.472;6.466;2023-08-07T13:32:09;3.97;;;1.80;;
21148;SDS011;10732;51.472;6.466;2023-08-07T13:34:35;4.60;;;1.70;;
21148;SDS011;10732;51.472;6.466;2023-08-07T13:37:01;4.10;;;2.00;;
21148;SDS011;10732;51.472;6.466;2023-08-07T13:39:27;4.32;;;1.70;;
21148;SDS011;10732;51.472;6.466;2023-08-07T13:41:53;3.58;;;2.00;;
21148;SDS011;10732;51.472;6.466;2023-08-07T13:44:19;7.03;;;2.13;;
21148;SDS011;10732;51.472;6.466;2023-08-07T13:46:45;4.03;;;1.52;;
21148;SDS011;10732;51.472;6.466;2023-08-07T13:49:12;4.45;;;1.60;;
21148;SDS011;10732;51.472;6.466;2023-08-07T13:51:38;4.13;;;1.75;;
21148;SDS011;10732;51.472;6.466;2023-08-07T13:54:04;3.88;;;1.88;;
21148;SDS011;10732;51.472;6.466;2023-08-07T13:56:29;5.07;;;1.60;;
21148;SDS011;10732;51.472;6.466;2023-08-07T13:58:55;3.97;;;1.80;;
21148;SDS011;10732;51.472;6.466;2023-08-07T14:01:20;5.60;;;1.88;;
21148;SDS011;10732;51.472;6.466;2023-08-07T14:03:46;4.55;;;1.48;;
21148;SDS011;10732;51.472;6.466;2023-08-07T14:06:11;3.85;;;1.85;;
21148;SDS011;10732;51.472;6.466;2023-08-07T14:08:37;2.58;;;1.50;;
21148;SDS011;10732;51.472;6.466;2023-08-07T14:11:03;3.03;;;1.50;;
21148;SDS011;10732;51.472;6.466;2023-08-07T14:13:29;5.05;;;1.67;;
21148;SDS011;10732;51.472;6.466;2023-08-07T14:15:55;5.10;;;1.88;;
21148;SDS011;10732;51.472;6.466;2023-08-07T14:18:20;3.60;;;1.75;;
21148;SDS011;10732;51.472;6.466;2023-08-07T14:20:46;4.75;;;1.65;;
21148;SDS011;10732;51.472;6.466;2023-08-07T14:23:12;5.72;;;1.80;;
21148;SDS011;10732;51.472;6.466;2023-08-07T14:25:37;3.55;;;1.55;;
21148;SDS011;10732;51.472;6.466;2023-08-07T14:28:03;4.13;;;1.50;;
21148;SDS011;10732;51.472;6.466;2023-08-07T14:30:29;6.32;;;1.95;;
21148;SDS011;10732;51.472;6.466;2023-08-07T14:32:54;1.83;;;1.50;;
21148;SDS011;10732;51.472;6.466;2023-08-07T14:35:20;4.13;;;1.63;;
21148;SDS011;10732;51.472;6.466;2023-08-07T14:37:45;3.88;;;1.83;;
21148;SDS011;10732;51.472;6.466;2023-08-07T14:40:13;5.32;;;2.03;;
21148;SDS011;10732;51.472;6.466;2023-08-07T14:42:39;6.20;;;1.90;;